sensor_id;sensor_type;location;lat;lon;timestamp;P1;durP1;ratioP1;P2;durP2;ratioP2
1336;SDS011;662;48.814;9.318;2023-07-20T00:01:30;5.13;;;2.10;;
1336;SDS011;662;48.814;9.318;2023-07-20T00:03:56;2.70;;;1.97;;
1336;SDS011;662;48.814;9.318;2023-07-20T00:06:21;2.47;;;2.00;;
1336;SDS011;662;48.814;9.318;2023-07-20T00:08:47;2.40;;;2.07;;
1336;SDS011;662;48.814;9.318;2023-07-20T00:11:13;2.30;;;2.10;;
1336;SDS011;662;48.814;9.318;2023-07-20T00:13:39;1.83;;;1.73;;
1336;SDS011;662;48.814;9.318;2023-07-20T00:16:05;2.33;;;1.70;;
1336;SDS011;662;48.814;9.318;2023-07-20T00:18:31;2.50;;;2.30;;
1336;SDS011;662;48.814;9.318;2023-07-20T00:20:56;2.63;;;1.93;;
1336;SDS011;662;48.814;9.318;2023-07-20T00:23:22;2.30;;;1.80;;
1336;SDS011;662;48.814;9.318;2023-07-20T00:25:48;4.43;;;2.80;;
1336;SDS011;662;48.814;9.318;2023-07-20T00:28:14;1.90;;;1.80;;
1336;SDS011;662;48.814;9.318;2023-07-20T00:30:39;2.63;;;1.77;;
1336;SDS011;662;48.814;9.318;2023-07-20T00:33:06;1.67;;;1.57;;
1336;SDS011;662;48.814;9.318;2023-07-20T00:35:35;5.30;;;2.00;;
1336;SDS011;662;48.814;9.318;2023-07-20T00:38:03;1.90;;;1.80;;
1336;SDS011;662;48.814;9.318;2023-07-20T00:40:34;1.97;;;1.87;;
1336;SDS011;662;48.814;9.318;2023-07-20T00:43:04;2.30;;;1.80;;
1336;SDS011;662;48.814;9.318;2023-07-20T00:45:30;3.80;;;1.87;;
1336;SDS011;662;48.814;9.318;2023-07-20T00:47:56;2.10;;;1.90;;
1336;SDS011;662;48.814;9.318;2023-07-20T00:50:23;1.80;;;1.70;;
1336;SDS011;662;48.814;9.318;2023-07-20T00:52:52;3.77;;;1.70;;
1336;SDS011;662;48.814;9.318;2023-07-20T00:55:18;2.73;;;1.70;;
1336;SDS011;662;48.814;9.318;2023-07-20T00:57:44;3.30;;;2.80;;
1336;SDS011;662;48.814;9.318;2023-07-20T01:00:11;1.90;;;1.80;;
1336;SDS011;662;48.814;9.318;2023-07-20T01:02:37;4.07;;;2.23;;
1336;SDS011;662;48.814;9.318;2023-07-20T01:05:03;2.03;;;1.80;;
1336;SDS011;662;48.814;9.318;2023-07-20T01:07:32;1.67;;;1.57;;
1336;SDS011;662;48.814;9.318;2023-07-20T01:10:03;1.70;;;1.60;;
1336;SDS011;662;48.814;9.318;2023-07-20T01:12:37;1.90;;;1.70;;
1336;SDS011;662;48.814;9.318;2023-07-20T01:15:07;2.07;;;1.80;;
1336;SDS011;662;48.814;9.318;2023-07-20T01:17:34;2.10;;;1.93;;
1336;SDS011;662;48.814;9.318;2023-07-20T01:19:59;2.77;;;1.67;;
1336;SDS011;662;48.814;9.318;2023-07-20T01:25:22;2.20;;;1.67;;
1336;SDS011;662;48.814;9.318;2023-07-20T01:33:42;1.60;;;1.50;;
1336;SDS011;662;48.814;9.318;2023-07-20T01:36:09;2.00;;;1.80;;
1336;SDS011;662;48.814;9.318;2023-07-20T01:38:36;4.27;;;2.00;;
1336;SDS011;662;48.814;9.318;2023-07-20T01:41:02;2.33;;;2.10;;
1336;SDS011;662;48.814;9.318;2023-07-20T01:43:28;2.60;;;2.03;;
1336;SDS011;662;48.814;9.318;2023-07-20T01:45:54;2.03;;;1.90;;
1336;SDS011;662;48.814;9.318;2023-07-20T01:48:20;2.40;;;2.00;;
1336;SDS011;662;48.814;9.318;2023-07-20T01:50:45;3.87;;;1.80;;
1336;SDS011;662;48.814;9.318;2023-07-20T01:53:11;2.20;;;1.80;;
1336;SDS011;662;48.814;9.318;2023-07-20T01:55:37;1.93;;;1.83;;
1336;SDS011;662;48.814;9.318;2023-07-20T01:58:02;1.97;;;1.87;;
1336;SDS011;662;48.814;9.318;2023-07-20T02:00:28;2.23;;;1.93;;
1336;SDS011;662;48.814;9.318;2023-07-20T02:02:54;2.00;;;1.53;;
1336;SDS011;662;48.814;9.318;2023-07-20T02:05:20;1.83;;;1.50;;
1336;SDS011;662;48.814;9.318;2023-07-20T02:07:45;2.03;;;1.90;;
1336;SDS011;662;48.814;9.318;2023-07-20T02:10:11;3.03;;;1.93;;
1336;SDS011;662;48.814;9.318;2023-07-20T02:12:37;3.60;;;1.90;;
1336;SDS011;662;48.814;9.318;2023-07-20T02:15:02;2.23;;;2.03;;
1336;SDS011;662;48.814;9.318;2023-07-20T02:17:28;2.40;;;1.70;;
1336;SDS011;662;48.814;9.318;2023-07-20T02:19:56;1.83;;;1.70;;
1336;SDS011;662;48.814;9.318;2023-07-20T02:22:22;1.50;;;1.40;;
1336;SDS011;662;48.814;9.318;2023-07-20T02:24:48;1.97;;;1.63;;
1336;SDS011;662;48.814;9.318;2023-07-20T02:27:15;1.93;;;1.80;;
1336;SDS011;662;48.814;9.318;2023-07-20T02:29:40;2.63;;;2.17;;
1336;SDS011;662;48.814;9.318;2023-07-20T02:32:07;2.53;;;1.70;;
1336;SDS011;662;48.814;9.318;2023-07-20T02:34:35;2.30;;;1.77;;
1336;SDS011;662;48.814;9.318;2023-07-20T02:37:01;2.77;;;1.90;;
1336;SDS011;662;48.814;9.318;2023-07-20T02:39:27;3.70;;;2.00;;
1336;SDS011;662;48.814;9.318;2023-07-20T02:41:53;2.13;;;1.93;;
1336;SDS011;662;48.814;9.318;2023-07-20T02:44:19;2.20;;;2.00;;
1336;SDS011;662;48.814;9.318;2023-07-20T02:46:44;2.60;;;2.00;;
1336;SDS011;662;48.814;9.318;2023-07-20T02:49:10;2.77;;;2.20;;
1336;SDS011;662;48.814;9.318;2023-07-20T02:51:36;2.30;;;1.70;;
1336;SDS011;662;48.814;9.318;2023-07-20T02:54:01;1.70;;;1.60;;
1336;SDS011;662;48.814;9.318;2023-07-20T02:56:28;3.33;;;2.43;;
1336;SDS011;662;48.814;9.318;2023-07-20T02:58:54;2.93;;;1.87;;
1336;SDS011;662;48.814;9.318;2023-07-20T03:01:19;2.53;;;2.27;;
1336;SDS011;662;48.814;9.318;2023-07-20T03:03:45;2.03;;;1.70;;
1336;SDS011;662;48.814;9.318;2023-07-20T03:06:11;1.90;;;1.67;;
1336;SDS011;662;48.814;9.318;2023-07-20T03:08:43;2.73;;;2.40;;
1336;SDS011;662;48.814;9.318;2023-07-20T03:11:10;2.30;;;2.07;;
1336;SDS011;662;48.814;9.318;2023-07-20T03:13:36;3.90;;;2.17;;
1336;SDS011;662;48.814;9.318;2023-07-20T03:16:01;2.87;;;2.07;;
1336;SDS011;662;48.814;9.318;2023-07-20T03:18:27;3.13;;;2.00;;
1336;SDS011;662;48.814;9.318;2023-07-20T03:20:53;7.10;;;2.63;;
1336;SDS011;662;48.814;9.318;2023-07-20T03:23:18;3.00;;;2.03;;
1336;SDS011;662;48.814;9.318;2023-07-20T03:25:44;2.77;;;2.23;;
1336;SDS011;662;48.814;9.318;2023-07-20T03:28:09;2.80;;;2.13;;
1336;SDS011;662;48.814;9.318;2023-07-20T03:30:35;2.37;;;2.17;;
1336;SDS011;662;48.814;9.318;2023-07-20T03:33:01;2.20;;;1.60;;
1336;SDS011;662;48.814;9.318;2023-07-20T03:35:28;5.33;;;2.87;;
1336;SDS011;662;48.814;9.318;2023-07-20T03:37:53;3.10;;;1.80;;
1336;SDS011;662;48.814;9.318;2023-07-20T03:40:19;2.17;;;1.97;;
1336;SDS011;662;48.814;9.318;2023-07-20T03:42:44;2.53;;;2.10;;
1336;SDS011;662;48.814;9.318;2023-07-20T03:45:10;2.47;;;2.27;;
1336;SDS011;662;48.814;9.318;2023-07-20T03:47:35;2.27;;;2.07;;
1336;SDS011;662;48.814;9.318;2023-07-20T03:50:01;2.30;;;2.10;;
1336;SDS011;662;48.814;9.318;2023-07-20T03:52:28;3.50;;;2.00;;
1336;SDS011;662;48.814;9.318;2023-07-20T03:54:54;2.10;;;1.83;;
1336;SDS011;662;48.814;9.318;2023-07-20T03:57:19;2.80;;;2.10;;
1336;SDS011;662;48.814;9.318;2023-07-20T03:59:45;3.00;;;2.40;;
1336;SDS011;662;48.814;9.318;2023-07-20T04:02:11;2.83;;;2.27;;
1336;SDS011;662;48.814;9.318;2023-07-20T04:04:37;2.63;;;2.00;;
1336;SDS011;662;48.814;9.318;2023-07-20T04:07:02;2.90;;;2.00;;
1336;SDS011;662;48.814;9.318;2023-07-20T04:09:28;2.43;;;2.07;;
1336;SDS011;662;48.814;9.318;2023-07-20T04:11:54;2.73;;;2.07;;
1336;SDS011;662;48.814;9.318;2023-07-20T04:14:20;2.27;;;1.80;;
1336;SDS011;662;48.814;9.318;2023-07-20T04:16:46;2.17;;;2.00;;
1336;SDS011;662;48.814;9.318;2023-07-20T04:19:12;2.60;;;2.00;;
1336;SDS011;662;48.814;9.318;2023-07-20T04:21:41;2.23;;;1.93;;
1336;SDS011;662;48.814;9.318;2023-07-20T04:24:07;1.90;;;1.80;;
1336;SDS011;662;48.814;9.318;2023-07-20T04:26:32;2.83;;;2.30;;
1336;SDS011;662;48.814;9.318;2023-07-20T04:28:58;2.00;;;1.80;;
1336;SDS011;662;48.814;9.318;2023-07-20T04:31:24;2.20;;;2.00;;
1336;SDS011;662;48.814;9.318;2023-07-20T04:33:50;2.37;;;2.00;;
1336;SDS011;662;48.814;9.318;2023-07-20T04:36:16;2.30;;;1.97;;
1336;SDS011;662;48.814;9.318;2023-07-20T04:38:44;2.30;;;2.10;;
1336;SDS011;662;48.814;9.318;2023-07-20T04:41:11;2.17;;;1.80;;
1336;SDS011;662;48.814;9.318;2023-07-20T04:43:43;2.90;;;1.97;;
1336;SDS011;662;48.814;9.318;2023-07-20T04:46:12;2.30;;;2.10;;
1336;SDS011;662;48.814;9.318;2023-07-20T04:48:37;2.47;;;1.87;;
1336;SDS011;662;48.814;9.318;2023-07-20T04:51:03;2.77;;;2.30;;
1336;SDS011;662;48.814;9.318;2023-07-20T04:53:29;5.50;;;2.40;;
1336;SDS011;662;48.814;9.318;2023-07-20T04:55:56;2.10;;;1.70;;
1336;SDS011;662;48.814;9.318;2023-07-20T04:58:21;2.87;;;2.10;;
1336;SDS011;662;48.814;9.318;2023-07-20T05:00:50;2.30;;;2.07;;
1336;SDS011;662;48.814;9.318;2023-07-20T05:03:16;1.90;;;1.80;;
1336;SDS011;662;48.814;9.318;2023-07-20T05:05:42;2.63;;;2.43;;
1336;SDS011;662;48.814;9.318;2023-07-20T05:08:08;3.33;;;2.30;;
1336;SDS011;662;48.814;9.318;2023-07-20T05:10:34;2.03;;;1.70;;
1336;SDS011;662;48.814;9.318;2023-07-20T05:13:00;4.30;;;2.23;;
1336;SDS011;662;48.814;9.318;2023-07-20T05:15:26;2.73;;;2.30;;
1336;SDS011;662;48.814;9.318;2023-07-20T05:17:51;2.70;;;2.30;;
1336;SDS011;662;48.814;9.318;2023-07-20T05:20:17;1.90;;;1.80;;
1336;SDS011;662;48.814;9.318;2023-07-20T05:22:43;2.47;;;2.10;;
1336;SDS011;662;48.814;9.318;2023-07-20T05:25:09;3.73;;;2.33;;
1336;SDS011;662;48.814;9.318;2023-07-20T05:27:36;2.03;;;1.83;;
1336;SDS011;662;48.814;9.318;2023-07-20T05:30:02;4.53;;;2.20;;
1336;SDS011;662;48.814;9.318;2023-07-20T05:32:28;2.27;;;1.90;;
1336;SDS011;662;48.814;9.318;2023-07-20T05:34:54;1.90;;;1.70;;
1336;SDS011;662;48.814;9.318;2023-07-20T05:37:20;3.50;;;2.23;;
1336;SDS011;662;48.814;9.318;2023-07-20T05:39:46;2.10;;;1.80;;
1336;SDS011;662;48.814;9.318;2023-07-20T05:42:12;3.40;;;2.40;;
1336;SDS011;662;48.814;9.318;2023-07-20T05:44:38;2.73;;;2.20;;
1336;SDS011;662;48.814;9.318;2023-07-20T05:47:04;3.10;;;2.20;;
1336;SDS011;662;48.814;9.318;2023-07-20T05:49:30;5.63;;;2.30;;
1336;SDS011;662;48.814;9.318;2023-07-20T05:51:56;2.47;;;2.13;;
1336;SDS011;662;48.814;9.318;2023-07-20T05:54:23;7.03;;;3.60;;
1336;SDS011;662;48.814;9.318;2023-07-20T05:56:50;3.07;;;1.83;;
1336;SDS011;662;48.814;9.318;2023-07-20T05:59:15;3.40;;;2.20;;
1336;SDS011;662;48.814;9.318;2023-07-20T06:01:41;2.63;;;1.67;;
1336;SDS011;662;48.814;9.318;2023-07-20T06:04:08;3.60;;;1.70;;
1336;SDS011;662;48.814;9.318;2023-07-20T06:06:34;3.13;;;1.83;;
1336;SDS011;662;48.814;9.318;2023-07-20T06:09:00;2.27;;;1.97;;
1336;SDS011;662;48.814;9.318;2023-07-20T06:11:30;2.00;;;1.80;;
1336;SDS011;662;48.814;9.318;2023-07-20T06:13:56;2.33;;;1.83;;
1336;SDS011;662;48.814;9.318;2023-07-20T06:16:22;4.33;;;2.03;;
1336;SDS011;662;48.814;9.318;2023-07-20T06:18:48;2.20;;;2.00;;
1336;SDS011;662;48.814;9.318;2023-07-20T06:21:13;2.10;;;1.90;;
1336;SDS011;662;48.814;9.318;2023-07-20T06:23:39;3.20;;;2.43;;
1336;SDS011;662;48.814;9.318;2023-07-20T06:26:05;5.93;;;1.70;;
1336;SDS011;662;48.814;9.318;2023-07-20T06:28:32;1.93;;;1.73;;
1336;SDS011;662;48.814;9.318;2023-07-20T06:30:59;2.60;;;1.83;;
1336;SDS011;662;48.814;9.318;2023-07-20T06:33:25;2.63;;;2.10;;
1336;SDS011;662;48.814;9.318;2023-07-20T06:35:50;2.43;;;2.20;;
1336;SDS011;662;48.814;9.318;2023-07-20T06:38:18;3.30;;;2.00;;
1336;SDS011;662;48.814;9.318;2023-07-20T06:40:45;2.60;;;2.40;;
1336;SDS011;662;48.814;9.318;2023-07-20T06:43:11;2.43;;;2.10;;
1336;SDS011;662;48.814;9.318;2023-07-20T06:45:37;2.33;;;1.93;;
1336;SDS011;662;48.814;9.318;2023-07-20T06:48:03;2.10;;;1.70;;
1336;SDS011;662;48.814;9.318;2023-07-20T06:50:29;2.10;;;1.90;;
1336;SDS011;662;48.814;9.318;2023-07-20T06:52:54;3.03;;;2.07;;
1336;SDS011;662;48.814;9.318;2023-07-20T06:55:20;2.43;;;1.90;;
1336;SDS011;662;48.814;9.318;2023-07-20T06:57:46;2.00;;;1.70;;
1336;SDS011;662;48.814;9.318;2023-07-20T07:00:12;4.20;;;2.10;;
1336;SDS011;662;48.814;9.318;2023-07-20T07:02:38;2.07;;;1.87;;
1336;SDS011;662;48.814;9.318;2023-07-20T07:05:04;2.47;;;1.70;;
1336;SDS011;662;48.814;9.318;2023-07-20T07:07:30;2.43;;;1.80;;
1336;SDS011;662;48.814;9.318;2023-07-20T07:09:55;2.20;;;1.70;;
1336;SDS011;662;48.814;9.318;2023-07-20T07:12:21;4.00;;;2.20;;
1336;SDS011;662;48.814;9.318;2023-07-20T07:14:47;1.80;;;1.67;;
1336;SDS011;662;48.814;9.318;2023-07-20T07:17:12;2.23;;;1.77;;
1336;SDS011;662;48.814;9.318;2023-07-20T07:19:39;1.93;;;1.83;;
1336;SDS011;662;48.814;9.318;2023-07-20T07:22:05;2.57;;;1.80;;
1336;SDS011;662;48.814;9.318;2023-07-20T07:24:31;2.23;;;2.03;;
1336;SDS011;662;48.814;9.318;2023-07-20T07:27:00;2.90;;;1.90;;
1336;SDS011;662;48.814;9.318;2023-07-20T07:29:26;4.37;;;2.10;;
1336;SDS011;662;48.814;9.318;2023-07-20T07:31:51;4.07;;;1.93;;
1336;SDS011;662;48.814;9.318;2023-07-20T07:34:17;3.07;;;2.00;;
1336;SDS011;662;48.814;9.318;2023-07-20T07:36:43;3.43;;;2.10;;
1336;SDS011;662;48.814;9.318;2023-07-20T07:39:09;2.20;;;2.00;;
1336;SDS011;662;48.814;9.318;2023-07-20T07:41:35;3.27;;;2.13;;
1336;SDS011;662;48.814;9.318;2023-07-20T07:44:00;3.13;;;2.20;;
1336;SDS011;662;48.814;9.318;2023-07-20T07:46:26;2.47;;;1.70;;
1336;SDS011;662;48.814;9.318;2023-07-20T07:48:51;2.40;;;1.60;;
1336;SDS011;662;48.814;9.318;2023-07-20T07:51:18;2.13;;;1.93;;
1336;SDS011;662;48.814;9.318;2023-07-20T07:53:44;1.90;;;1.80;;
1336;SDS011;662;48.814;9.318;2023-07-20T07:56:11;2.07;;;1.73;;
1336;SDS011;662;48.814;9.318;2023-07-20T07:58:36;2.43;;;2.10;;
1336;SDS011;662;48.814;9.318;2023-07-20T08:01:02;2.83;;;2.30;;
1336;SDS011;662;48.814;9.318;2023-07-20T08:03:28;2.13;;;1.53;;
1336;SDS011;662;48.814;9.318;2023-07-20T08:05:54;1.93;;;1.73;;
1336;SDS011;662;48.814;9.318;2023-07-20T08:08:25;2.10;;;1.80;;
1336;SDS011;662;48.814;9.318;2023-07-20T08:10:53;2.40;;;2.03;;
1336;SDS011;662;48.814;9.318;2023-07-20T08:13:19;2.37;;;2.17;;
1336;SDS011;662;48.814;9.318;2023-07-20T08:15:45;2.97;;;2.33;;
1336;SDS011;662;48.814;9.318;2023-07-20T08:18:14;4.83;;;2.00;;
1336;SDS011;662;48.814;9.318;2023-07-20T08:20:43;2.20;;;2.00;;
1336;SDS011;662;48.814;9.318;2023-07-20T08:23:09;3.67;;;2.27;;
1336;SDS011;662;48.814;9.318;2023-07-20T08:25:36;1.50;;;1.40;;
1336;SDS011;662;48.814;9.318;2023-07-20T08:28:04;2.80;;;2.00;;
1336;SDS011;662;48.814;9.318;2023-07-20T08:30:39;2.90;;;1.90;;
1336;SDS011;662;48.814;9.318;2023-07-20T08:33:10;3.03;;;2.20;;
1336;SDS011;662;48.814;9.318;2023-07-20T08:35:38;3.70;;;2.20;;
1336;SDS011;662;48.814;9.318;2023-07-20T08:38:03;1.80;;;1.70;;
1336;SDS011;662;48.814;9.318;2023-07-20T08:40:30;2.03;;;1.93;;
1336;SDS011;662;48.814;9.318;2023-07-20T08:42:57;2.17;;;1.97;;
1336;SDS011;662;48.814;9.318;2023-07-20T08:45:25;1.80;;;1.60;;
1336;SDS011;662;48.814;9.318;2023-07-20T08:47:54;2.77;;;2.00;;
1336;SDS011;662;48.814;9.318;2023-07-20T08:50:22;2.40;;;1.83;;
1336;SDS011;662;48.814;9.318;2023-07-20T08:52:50;2.23;;;2.03;;
1336;SDS011;662;48.814;9.318;2023-07-20T08:55:18;2.70;;;1.90;;
1336;SDS011;662;48.814;9.318;2023-07-20T08:57:48;1.97;;;1.87;;
1336;SDS011;662;48.814;9.318;2023-07-20T09:00:17;2.50;;;1.77;;
1336;SDS011;662;48.814;9.318;2023-07-20T09:02:45;3.87;;;1.63;;
1336;SDS011;662;48.814;9.318;2023-07-20T09:05:12;2.30;;;1.77;;
1336;SDS011;662;48.814;9.318;2023-07-20T09:07:39;1.90;;;1.33;;
1336;SDS011;662;48.814;9.318;2023-07-20T09:10:06;1.73;;;1.50;;
1336;SDS011;662;48.814;9.318;2023-07-20T09:12:35;1.83;;;1.57;;
1336;SDS011;662;48.814;9.318;2023-07-20T09:15:03;2.83;;;1.67;;
1336;SDS011;662;48.814;9.318;2023-07-20T09:17:30;2.30;;;1.80;;
1336;SDS011;662;48.814;9.318;2023-07-20T09:19:55;3.10;;;1.80;;
1336;SDS011;662;48.814;9.318;2023-07-20T09:22:21;2.83;;;1.70;;
1336;SDS011;662;48.814;9.318;2023-07-20T09:24:47;2.27;;;1.70;;
1336;SDS011;662;48.814;9.318;2023-07-20T09:27:13;3.97;;;2.13;;
1336;SDS011;662;48.814;9.318;2023-07-20T09:29:48;1.50;;;1.40;;
1336;SDS011;662;48.814;9.318;2023-07-20T09:32:15;1.80;;;1.70;;
1336;SDS011;662;48.814;9.318;2023-07-20T09:34:46;5.13;;;2.13;;
1336;SDS011;662;48.814;9.318;2023-07-20T09:37:12;3.50;;;1.67;;
1336;SDS011;662;48.814;9.318;2023-07-20T09:39:44;3.10;;;1.97;;
1336;SDS011;662;48.814;9.318;2023-07-20T09:42:14;2.17;;;1.70;;
1336;SDS011;662;48.814;9.318;2023-07-20T09:44:40;1.90;;;1.50;;
1336;SDS011;662;48.814;9.318;2023-07-20T09:47:08;2.83;;;1.90;;
1336;SDS011;662;48.814;9.318;2023-07-20T09:49:38;2.00;;;1.80;;
1336;SDS011;662;48.814;9.318;2023-07-20T09:52:05;2.33;;;2.00;;
1336;SDS011;662;48.814;9.318;2023-07-20T09:54:33;2.57;;;2.23;;
1336;SDS011;662;48.814;9.318;2023-07-20T09:56:59;2.10;;;1.90;;
1336;SDS011;662;48.814;9.318;2023-07-20T09:59:27;2.00;;;1.80;;
1336;SDS011;662;48.814;9.318;2023-07-20T10:01:53;1.93;;;1.53;;
1336;SDS011;662;48.814;9.318;2023-07-20T10:04:25;2.20;;;1.70;;
1336;SDS011;662;48.814;9.318;2023-07-20T10:06:53;2.87;;;1.60;;
1336;SDS011;662;48.814;9.318;2023-07-20T10:09:21;1.70;;;1.43;;
1336;SDS011;662;48.814;9.318;2023-07-20T10:11:56;2.43;;;1.67;;
1336;SDS011;662;48.814;9.318;2023-07-20T10:14:23;1.47;;;1.37;;
1336;SDS011;662;48.814;9.318;2023-07-20T10:16:51;1.43;;;1.33;;
1336;SDS011;662;48.814;9.318;2023-07-20T10:19:23;1.67;;;1.40;;
1336;SDS011;662;48.814;9.318;2023-07-20T10:21:59;1.60;;;1.20;;
1336;SDS011;662;48.814;9.318;2023-07-20T10:24:28;1.53;;;1.43;;
1336;SDS011;662;48.814;9.318;2023-07-20T10:26:55;2.73;;;1.70;;
1336;SDS011;662;48.814;9.318;2023-07-20T10:29:21;2.10;;;1.63;;
1336;SDS011;662;48.814;9.318;2023-07-20T10:31:48;1.70;;;1.37;;
1336;SDS011;662;48.814;9.318;2023-07-20T10:34:14;1.70;;;1.60;;
1336;SDS011;662;48.814;9.318;2023-07-20T10:36:44;2.27;;;1.70;;
1336;SDS011;662;48.814;9.318;2023-07-20T10:39:27;1.30;;;1.20;;
1336;SDS011;662;48.814;9.318;2023-07-20T10:42:31;1.30;;;1.20;;
1336;SDS011;662;48.814;9.318;2023-07-20T10:44:47;2.23;;;1.30;;
1336;SDS011;662;48.814;9.318;2023-07-20T10:47:13;1.90;;;1.50;;
1336;SDS011;662;48.814;9.318;2023-07-20T10:49:57;1.53;;;1.30;;
1336;SDS011;662;48.814;9.318;2023-07-20T10:52:25;1.57;;;1.47;;
1336;SDS011;662;48.814;9.318;2023-07-20T10:54:50;1.43;;;1.30;;
1336;SDS011;662;48.814;9.318;2023-07-20T10:57:37;1.47;;;1.37;;
1336;SDS011;662;48.814;9.318;2023-07-20T11:00:09;1.40;;;1.30;;
1336;SDS011;662;48.814;9.318;2023-07-20T11:02:48;1.70;;;1.57;;
1336;SDS011;662;48.814;9.318;2023-07-20T11:05:33;2.00;;;1.43;;
1336;SDS011;662;48.814;9.318;2023-07-20T11:08:04;1.33;;;1.17;;
1336;SDS011;662;48.814;9.318;2023-07-20T11:10:31;0.93;;;0.93;;
1336;SDS011;662;48.814;9.318;2023-07-20T11:13:15;1.30;;;1.20;;
1336;SDS011;662;48.814;9.318;2023-07-20T11:18:26;1.37;;;1.27;;
1336;SDS011;662;48.814;9.318;2023-07-20T11:20:53;1.60;;;1.37;;
1336;SDS011;662;48.814;9.318;2023-07-20T11:23:22;1.30;;;1.20;;
1336;SDS011;662;48.814;9.318;2023-07-20T11:25:48;3.30;;;1.20;;
1336;SDS011;662;48.814;9.318;2023-07-20T11:28:14;1.37;;;1.27;;
1336;SDS011;662;48.814;9.318;2023-07-20T11:30:41;1.40;;;1.30;;
1336;SDS011;662;48.814;9.318;2023-07-20T11:33:09;1.30;;;1.20;;
1336;SDS011;662;48.814;9.318;2023-07-20T11:35:36;1.80;;;1.10;;
1336;SDS011;662;48.814;9.318;2023-07-20T11:38:14;1.50;;;1.40;;
1336;SDS011;662;48.814;9.318;2023-07-20T11:40:46;1.27;;;1.17;;
1336;SDS011;662;48.814;9.318;2023-07-20T11:43:12;1.10;;;1.00;;
1336;SDS011;662;48.814;9.318;2023-07-20T11:45:38;1.37;;;1.27;;
1336;SDS011;662;48.814;9.318;2023-07-20T11:48:04;3.33;;;1.30;;
1336;SDS011;662;48.814;9.318;2023-07-20T11:50:30;2.10;;;1.10;;
1336;SDS011;662;48.814;9.318;2023-07-20T11:52:56;1.43;;;1.10;;
1336;SDS011;662;48.814;9.318;2023-07-20T11:55:22;1.10;;;1.00;;
1336;SDS011;662;48.814;9.318;2023-07-20T11:58:01;1.37;;;1.10;;
1336;SDS011;662;48.814;9.318;2023-07-20T12:00:27;1.10;;;1.10;;
1336;SDS011;662;48.814;9.318;2023-07-20T12:02:53;4.83;;;1.20;;
1336;SDS011;662;48.814;9.318;2023-07-20T12:05:19;1.40;;;1.30;;
1336;SDS011;662;48.814;9.318;2023-07-20T12:07:47;1.13;;;1.03;;
1336;SDS011;662;48.814;9.318;2023-07-20T12:10:15;1.50;;;1.40;;
1336;SDS011;662;48.814;9.318;2023-07-20T12:12:41;1.73;;;1.10;;
1336;SDS011;662;48.814;9.318;2023-07-20T12:17:46;1.45;;;1.10;;
1336;SDS011;662;48.814;9.318;2023-07-20T12:20:29;0.95;;;0.95;;
1336;SDS011;662;48.814;9.318;2023-07-20T12:23:00;1.20;;;1.00;;
1336;SDS011;662;48.814;9.318;2023-07-20T12:28:09;2.40;;;1.10;;
1336;SDS011;662;48.814;9.318;2023-07-20T12:30:37;1.10;;;1.00;;
1336;SDS011;662;48.814;9.318;2023-07-20T12:33:03;1.10;;;1.00;;
1336;SDS011;662;48.814;9.318;2023-07-20T12:35:29;1.20;;;1.10;;
1336;SDS011;662;48.814;9.318;2023-07-20T12:37:56;1.80;;;1.40;;
1336;SDS011;662;48.814;9.318;2023-07-20T12:40:22;1.40;;;1.30;;
1336;SDS011;662;48.814;9.318;2023-07-20T12:42:47;1.27;;;1.13;;
1336;SDS011;662;48.814;9.318;2023-07-20T12:45:13;3.47;;;1.40;;
1336;SDS011;662;48.814;9.318;2023-07-20T12:47:39;1.87;;;1.00;;
1336;SDS011;662;48.814;9.318;2023-07-20T12:50:06;2.20;;;2.00;;
1336;SDS011;662;48.814;9.318;2023-07-20T12:52:35;1.37;;;1.27;;
1336;SDS011;662;48.814;9.318;2023-07-20T12:55:02;1.43;;;1.20;;
1336;SDS011;662;48.814;9.318;2023-07-20T12:57:28;2.73;;;1.17;;
1336;SDS011;662;48.814;9.318;2023-07-20T12:59:54;0.97;;;0.90;;
1336;SDS011;662;48.814;9.318;2023-07-20T13:02:19;1.30;;;1.20;;
1336;SDS011;662;48.814;9.318;2023-07-20T13:04:45;1.43;;;1.33;;
1336;SDS011;662;48.814;9.318;2023-07-20T13:07:11;1.50;;;1.20;;
1336;SDS011;662;48.814;9.318;2023-07-20T13:09:39;2.33;;;1.00;;
1336;SDS011;662;48.814;9.318;2023-07-20T13:12:05;1.30;;;1.20;;
1336;SDS011;662;48.814;9.318;2023-07-20T13:14:31;1.90;;;1.80;;
1336;SDS011;662;48.814;9.318;2023-07-20T13:16:57;2.63;;;1.60;;
1336;SDS011;662;48.814;9.318;2023-07-20T13:19:22;1.23;;;1.13;;
1336;SDS011;662;48.814;9.318;2023-07-20T13:21:48;2.13;;;1.50;;
1336;SDS011;662;48.814;9.318;2023-07-20T13:24:14;1.70;;;1.20;;
1336;SDS011;662;48.814;9.318;2023-07-20T13:26:40;1.20;;;1.10;;
1336;SDS011;662;48.814;9.318;2023-07-20T13:29:05;1.23;;;1.10;;
1336;SDS011;662;48.814;9.318;2023-07-20T13:31:31;1.27;;;0.93;;
1336;SDS011;662;48.814;9.318;2023-07-20T13:33:57;1.20;;;1.10;;
1336;SDS011;662;48.814;9.318;2023-07-20T13:36:23;2.80;;;1.50;;
1336;SDS011;662;48.814;9.318;2023-07-20T13:38:49;1.45;;;1.33;;
1336;SDS011;662;48.814;9.318;2023-07-20T13:41:15;1.60;;;1.15;;
1336;SDS011;662;48.814;9.318;2023-07-20T13:43:41;1.30;;;0.90;;
1336;SDS011;662;48.814;9.318;2023-07-20T13:46:07;0.80;;;0.80;;
1336;SDS011;662;48.814;9.318;2023-07-20T13:48:33;1.30;;;1.20;;
1336;SDS011;662;48.814;9.318;2023-07-20T13:50:58;1.40;;;1.23;;
1336;SDS011;662;48.814;9.318;2023-07-20T13:53:24;1.57;;;1.20;;
1336;SDS011;662;48.814;9.318;2023-07-20T13:55:50;1.30;;;1.20;;
1336;SDS011;662;48.814;9.318;2023-07-20T13:58:17;1.23;;;1.13;;
1336;SDS011;662;48.814;9.318;2023-07-20T14:00:42;3.30;;;1.40;;
1336;SDS011;662;48.814;9.318;2023-07-20T14:03:08;1.60;;;1.23;;
1336;SDS011;662;48.814;9.318;2023-07-20T14:05:34;1.60;;;1.40;;
1336;SDS011;662;48.814;9.318;2023-07-20T14:08:00;1.20;;;1.10;;
1336;SDS011;662;48.814;9.318;2023-07-20T14:10:25;1.30;;;1.03;;
1336;SDS011;662;48.814;9.318;2023-07-20T14:12:51;1.30;;;1.20;;
1336;SDS011;662;48.814;9.318;2023-07-20T14:15:16;1.30;;;1.20;;
1336;SDS011;662;48.814;9.318;2023-07-20T14:17:44;0.87;;;0.83;;
1336;SDS011;662;48.814;9.318;2023-07-20T14:20:09;2.23;;;1.00;;
1336;SDS011;662;48.814;9.318;2023-07-20T14:22:35;1.30;;;1.20;;
1336;SDS011;662;48.814;9.318;2023-07-20T14:25:02;1.20;;;1.10;;
1336;SDS011;662;48.814;9.318;2023-07-20T14:27:28;1.23;;;1.13;;
1336;SDS011;662;48.814;9.318;2023-07-20T14:29:53;1.20;;;1.10;;
1336;SDS011;662;48.814;9.318;2023-07-20T14:32:20;2.00;;;1.10;;
1336;SDS011;662;48.814;9.318;2023-07-20T14:34:45;1.27;;;1.17;;
1336;SDS011;662;48.814;9.318;2023-07-20T14:37:11;1.30;;;1.20;;
1336;SDS011;662;48.814;9.318;2023-07-20T14:39:38;1.13;;;1.00;;
1336;SDS011;662;48.814;9.318;2023-07-20T14:42:03;1.70;;;1.40;;
1336;SDS011;662;48.814;9.318;2023-07-20T14:44:29;2.20;;;1.53;;
1336;SDS011;662;48.814;9.318;2023-07-20T14:46:55;1.60;;;1.30;;
1336;SDS011;662;48.814;9.318;2023-07-20T14:49:21;2.17;;;1.60;;
1336;SDS011;662;48.814;9.318;2023-07-20T14:51:46;1.40;;;1.30;;
1336;SDS011;662;48.814;9.318;2023-07-20T14:54:12;1.50;;;1.20;;
1336;SDS011;662;48.814;9.318;2023-07-20T14:56:39;1.80;;;1.20;;
1336;SDS011;662;48.814;9.318;2023-07-20T14:59:10;1.33;;;1.20;;
1336;SDS011;662;48.814;9.318;2023-07-20T15:01:35;1.43;;;1.23;;
1336;SDS011;662;48.814;9.318;2023-07-20T15:04:01;8.13;;;1.07;;
1336;SDS011;662;48.814;9.318;2023-07-20T15:06:27;1.53;;;1.13;;
1336;SDS011;662;48.814;9.318;2023-07-20T15:08:55;1.33;;;1.23;;
1336;SDS011;662;48.814;9.318;2023-07-20T15:11:21;1.53;;;1.43;;
1336;SDS011;662;48.814;9.318;2023-07-20T15:13:46;1.50;;;1.20;;
1336;SDS011;662;48.814;9.318;2023-07-20T15:16:12;1.40;;;1.10;;
1336;SDS011;662;48.814;9.318;2023-07-20T15:18:37;2.47;;;1.43;;
1336;SDS011;662;48.814;9.318;2023-07-20T15:21:03;1.67;;;1.37;;
1336;SDS011;662;48.814;9.318;2023-07-20T15:23:28;2.23;;;1.30;;
1336;SDS011;662;48.814;9.318;2023-07-20T15:25:54;2.00;;;1.30;;
1336;SDS011;662;48.814;9.318;2023-07-20T15:28:21;1.10;;;1.00;;
1336;SDS011;662;48.814;9.318;2023-07-20T15:30:47;2.10;;;1.23;;
1336;SDS011;662;48.814;9.318;2023-07-20T15:33:13;1.70;;;1.13;;
1336;SDS011;662;48.814;9.318;2023-07-20T15:35:39;1.90;;;1.00;;
1336;SDS011;662;48.814;9.318;2023-07-20T15:38:04;3.00;;;1.20;;
1336;SDS011;662;48.814;9.318;2023-07-20T15:40:30;1.23;;;1.13;;
1336;SDS011;662;48.814;9.318;2023-07-20T15:42:56;1.30;;;1.20;;
1336;SDS011;662;48.814;9.318;2023-07-20T15:45:21;1.13;;;0.97;;